Time;durP1;ratioP1;P1;durP2;ratioP2;P2;SDS_P1;SDS_P2;PMS_P1;PMS_P2;Temp;Humidity;BMP_temperature;BMP_pressure;BME280_temperature;BME280_humidity;BME280_pressure;Samples;Min_cycle;Max_cycle;Signal;HPM_P1;HPM_P2
2023/08/18 00:02:22;;;;;;;0.50;0.50;;;16.80;99.90;;;;;;5034855;28;20562;-72
2023/08/18 00:04:47;;;;;;;0.43;0.43;;;16.80;99.90;;;;;;5034761;28;20128;-71
2023/08/18 00:07:13;;;;;;;0.30;0.30;;;16.80;99.90;;;;;;5034893;28;20048;-72
2023/08/18 00:09:39;;;;;;;0.63;0.50;;;16.70;99.90;;;;;;5034509;28;20041;-71
2023/08/18 00:12:05;;;;;;;0.30;0.30;;;16.70;99.90;;;;;;5034491;28;20094;-72
2023/08/18 00:14:31;;;;;;;0.30;0.30;;;16.70;99.90;;;;;;5034990;28;20038;-72
2023/08/18 00:16:57;;;;;;;1.10;0.85;;;16.70;99.90;;;;;;5034505;28;20049;-72
2023/08/18 00:19:23;;;;;;;0.50;0.50;;;16.70;99.90;;;;;;5034810;28;20573;-73
2023/08/18 00:21:48;;;;;;;0.30;0.30;;;16.70;99.90;;;;;;5034577;28;20132;-72
2023/08/18 00:24:14;;;;;;;0.50;0.50;;;16.70;99.90;;;;;;5034388;28;20067;-72
2023/08/18 00:26:39;;;;;;;0.40;0.40;;;16.70;99.90;;;;;;5033003;28;20037;-72
2023/08/18 00:29:05;;;;;;;0.50;0.50;;;16.70;99.90;;;;;;5034168;28;20037;-72
2023/08/18 00:31:31;;;;;;;0.33;0.33;;;16.70;99.90;;;;;;5034593;28;20106;-72
2023/08/18 00:33:56;;;;;;;3.63;0.50;;;16.60;99.90;;;;;;5034509;28;20060;-72
2023/08/18 00:36:22;;;;;;;0.30;0.30;;;16.70;99.90;;;;;;5034262;28;20052;-72
2023/08/18 00:38:48;;;;;;;0.40;0.40;;;16.70;99.90;;;;;;5034135;28;20045;-72
2023/08/18 00:41:13;;;;;;;0.40;0.40;;;16.70;99.90;;;;;;5034047;28;20041;-72
2023/08/18 00:43:39;;;;;;;0.30;0.30;;;16.60;99.90;;;;;;5034096;28;20037;-72
2023/08/18 00:46:05;;;;;;;0.40;0.40;;;16.60;99.90;;;;;;5032995;28;20072;-72
2023/08/18 00:48:31;;;;;;;0.30;0.30;;;16.60;99.90;;;;;;5033917;28;20034;-71
2023/08/18 00:50:58;;;;;;;0.43;0.43;;;16.60;99.90;;;;;;5033507;28;20090;-72
2023/08/18 00:53:25;;;;;;;0.35;0.35;;;16.60;99.90;;;;;;5032336;28;20046;-73
2023/08/18 00:55:51;;;;;;;0.30;0.30;;;16.60;99.90;;;;;;5033782;28;20047;-72
2023/08/18 00:58:17;;;;;;;0.30;0.30;;;16.70;99.90;;;;;;5034211;28;20086;-71
2023/08/18 01:00:44;;;;;;;0.30;0.30;;;16.60;99.90;;;;;;5033443;28;20487;-73
2023/08/18 01:03:10;;;;;;;0.38;0.38;;;16.60;99.90;;;;;;5033842;28;20477;-72
2023/08/18 01:05:36;;;;;;;1.43;0.40;;;16.70;99.90;;;;;;5032554;28;20053;-72
2023/08/18 01:08:02;;;;;;;0.30;0.30;;;16.70;99.90;;;;;;5033666;28;20056;-73
2023/08/18 01:10:30;;;;;;;0.47;0.47;;;16.60;99.90;;;;;;5033662;28;20048;-73
2023/08/18 01:13:13;;;;;;;0.40;0.40;;;16.60;99.90;;;;;;5033667;28;20061;-72
2023/08/18 01:15:42;;;;;;;0.40;0.40;;;16.60;99.90;;;;;;5033643;28;20121;-72
2023/08/18 01:18:10;;;;;;;0.30;0.30;;;16.60;99.90;;;;;;5033563;28;20150;-71
2023/08/18 01:20:36;;;;;;;0.85;0.70;;;16.60;99.90;;;;;;5033528;28;20045;-71
2023/08/18 01:23:03;;;;;;;0.30;0.30;;;16.60;99.90;;;;;;5033505;28;20150;-72
2023/08/18 01:25:30;;;;;;;0.40;0.40;;;16.60;99.90;;;;;;5033214;28;20478;-71
2023/08/18 01:28:01;;;;;;;0.63;0.40;;;16.60;99.90;;;;;;5033646;28;20037;-72
2023/08/18 01:30:48;;;;;;;0.30;0.30;;;16.60;99.90;;;;;;5033804;28;20377;-72
2023/08/18 01:33:23;;;;;;;0.37;0.37;;;16.60;99.90;;;;;;5033671;28;20057;-72
2023/08/18 01:35:51;;;;;;;0.38;0.38;;;16.60;99.90;;;;;;5033385;28;20124;-73
2023/08/18 01:38:22;;;;;;;0.30;0.30;;;16.60;99.90;;;;;;5033362;28;20037;-72
2023/08/18 01:40:49;;;;;;;0.30;0.30;;;16.60;99.90;;;;;;5033454;28;20045;-72
2023/08/18 01:43:15;;;;;;;0.30;0.30;;;16.60;99.90;;;;;;5033316;28;20428;-72
2023/08/18 01:45:40;;;;;;;0.47;0.40;;;16.60;99.90;;;;;;5033025;28;20045;-71
2023/08/18 01:48:06;;;;;;;0.53;0.47;;;16.60;99.90;;;;;;5033212;28;20091;-72
2023/08/18 01:50:31;;;;;;;1.53;0.50;;;16.60;99.90;;;;;;5033280;28;20041;-72
2023/08/18 01:52:57;;;;;;;0.30;0.30;;;16.60;99.90;;;;;;5033344;28;20077;-72
2023/08/18 01:55:23;;;;;;;0.43;0.30;;;16.60;99.90;;;;;;5033298;28;20045;-71
2023/08/18 01:57:48;;;;;;;0.30;0.30;;;16.60;99.90;;;;;;5033271;28;20041;-73
2023/08/18 02:00:14;;;;;;;0.60;0.50;;;16.60;99.90;;;;;;5033395;28;20427;-72
2023/08/18 02:02:39;;;;;;;0.30;0.30;;;16.60;99.90;;;;;;5034832;28;20042;-72
2023/08/18 02:05:06;;;;;;;0.70;0.43;;;16.60;99.90;;;;;;5036643;28;20042;-73
2023/08/18 02:07:31;;;;;;;0.98;0.40;;;16.60;99.90;;;;;;5037244;28;20046;-72
2023/08/18 02:09:57;;;;;;;0.40;0.40;;;16.60;99.90;;;;;;5036897;28;20469;-72
2023/08/18 02:12:24;;;;;;;0.40;0.40;;;16.60;99.90;;;;;;5037137;28;20502;-72
2023/08/18 02:14:50;;;;;;;0.30;0.30;;;16.60;99.90;;;;;;5036647;28;20052;-72
2023/08/18 02:17:16;;;;;;;0.40;0.40;;;16.60;99.90;;;;;;5036578;28;20042;-72
2023/08/18 02:19:42;;;;;;;0.53;0.53;;;16.60;99.90;;;;;;5036714;28;20466;-73
2023/08/18 02:22:08;;;;;;;0.63;0.63;;;16.60;99.90;;;;;;5037086;28;20042;-72
2023/08/18 02:24:33;;;;;;;0.43;0.40;;;16.50;99.90;;;;;;5036716;28;20627;-73
2023/08/18 02:26:59;;;;;;;0.40;0.40;;;16.60;99.90;;;;;;5035322;28;20049;-72
2023/08/18 02:29:25;;;;;;;0.40;0.40;;;16.50;99.90;;;;;;5036471;28;20354;-71
2023/08/18 02:31:52;;;;;;;0.30;0.30;;;16.60;99.90;;;;;;5036630;28;20044;-72
2023/08/18 02:34:18;;;;;;;0.30;0.30;;;16.50;99.90;;;;;;5036416;28;20048;-72
2023/08/18 02:36:44;;;;;;;0.30;0.30;;;16.50;99.90;;;;;;5036474;28;20379;-71
2023/08/18 02:39:10;;;;;;;0.40;0.40;;;16.50;99.90;;;;;;5036883;28;20040;-72
2023/08/18 02:41:35;;;;;;;0.30;0.30;;;16.50;99.90;;;;;;5036648;28;20373;-71
2023/08/18 02:44:03;;;;;;;0.40;0.40;;;16.50;99.90;;;;;;5036261;28;20060;-72
2023/08/18 02:46:29;;;;;;;0.60;0.60;;;16.50;99.90;;;;;;5036372;28;20046;-72
2023/08/18 02:48:54;;;;;;;0.93;0.77;;;16.50;99.90;;;;;;5036149;28;20052;-73
2023/08/18 02:51:20;;;;;;;1.33;0.53;;;16.50;99.90;;;;;;5036190;28;20449;-71
2023/08/18 02:53:48;;;;;;;0.37;0.37;;;16.50;99.90;;;;;;5036616;28;20038;-72
2023/08/18 02:56:15;;;;;;;0.40;0.40;;;16.50;99.90;;;;;;5036123;28;20045;-72
2023/08/18 02:58:41;;;;;;;;;;;16.50;99.90;;;;;;5036535;28;20045;-72
2023/08/18 03:01:07;;;;;;;0.30;0.30;;;16.50;99.90;;;;;;5035963;28;19923;-72
2023/08/18 03:03:33;;;;;;;0.40;0.40;;;16.50;99.90;;;;;;5035852;28;20048;-72
2023/08/18 03:06:06;;;;;;;0.47;0.47;;;16.50;99.90;;;;;;5035917;28;20038;-71
2023/08/18 03:08:32;;;;;;;0.40;0.40;;;16.50;99.90;;;;;;5035731;28;20037;-72
2023/08/18 03:11:00;;;;;;;0.57;0.40;;;16.50;99.90;;;;;;5035822;28;20377;-72
2023/08/18 03:13:26;;;;;;;0.40;0.40;;;16.50;99.90;;;;;;5035335;28;20076;-72
2023/08/18 03:15:52;;;;;;;0.30;0.30;;;16.50;99.90;;;;;;5035783;28;20041;-71
2023/08/18 03:18:17;;;;;;;0.40;0.40;;;16.50;99.90;;;;;;5035740;28;20045;-71
2023/08/18 03:20:45;;;;;;;0.40;0.40;;;16.50;99.90;;;;;;5034608;28;20048;-72
2023/08/18 03:23:13;;;;;;;0.50;0.50;;;16.50;99.90;;;;;;5036207;28;20045;-72
2023/08/18 03:25:39;;;;;;;0.30;0.30;;;16.50;99.90;;;;;;5035522;28;20125;-73
2023/08/18 03:28:04;;;;;;;0.70;0.70;;;16.50;99.90;;;;;;5035466;28;20124;-72
2023/08/18 03:30:30;;;;;;;0.40;0.40;;;16.50;99.90;;;;;;5035460;28;20374;-73
2023/08/18 03:32:57;;;;;;;0.40;0.40;;;16.50;99.90;;;;;;5035370;28;20088;-72
2023/08/18 03:35:22;;;;;;;0.30;0.30;;;16.50;99.90;;;;;;5035410;28;20068;-72
2023/08/18 03:37:48;;;;;;;0.30;0.30;;;16.50;99.90;;;;;;5034134;28;20038;-71
2023/08/18 03:40:14;;;;;;;0.20;0.20;;;16.50;99.90;;;;;;5035163;28;20122;-72
2023/08/18 03:42:40;;;;;;;0.33;0.33;;;16.50;99.90;;;;;;5035409;28;20038;-73
2023/08/18 03:45:06;;;;;;;0.30;0.30;;;16.50;99.90;;;;;;5035160;28;20351;-72
2023/08/18 03:47:31;;;;;;;0.50;0.50;;;16.50;99.90;;;;;;5035061;28;20096;-73
2023/08/18 03:49:57;;;;;;;0.73;0.50;;;16.50;99.90;;;;;;5035047;28;20041;-72
2023/08/18 03:52:23;;;;;;;0.30;0.30;;;16.50;99.90;;;;;;5034997;28;20052;-73
2023/08/18 03:54:48;;;;;;;0.37;0.37;;;16.50;99.90;;;;;;5035031;28;20081;-72
2023/08/18 03:57:14;;;;;;;0.30;0.30;;;16.50;99.90;;;;;;5034901;28;20081;-72
2023/08/18 03:59:40;;;;;;;0.30;0.30;;;16.50;99.90;;;;;;5034826;28;20041;-72
2023/08/18 04:02:05;;;;;;;0.30;0.30;;;16.50;99.90;;;;;;5034737;28;20038;-72
2023/08/18 04:04:31;;;;;;;0.30;0.30;;;16.50;99.90;;;;;;5034798;28;20386;-72
2023/08/18 04:06:56;;;;;;;0.40;0.40;;;16.50;99.90;;;;;;5034384;28;20151;-72
2023/08/18 04:09:22;;;;;;;0.30;0.30;;;16.50;99.90;;;;;;5034624;28;20030;-71
2023/08/18 04:11:48;;;;;;;0.30;0.30;;;16.50;99.90;;;;;;5034671;28;20040;-72
2023/08/18 04:14:15;;;;;;;0.30;0.30;;;16.50;99.90;;;;;;5034504;28;20037;-72
2023/08/18 04:16:42;;;;;;;0.40;0.40;;;16.50;99.90;;;;;;5034477;28;20046;-72
2023/08/18 04:19:07;;;;;;;0.30;0.30;;;16.50;99.90;;;;;;5034959;28;20050;-72
2023/08/18 04:21:33;;;;;;;0.33;0.33;;;16.50;99.90;;;;;;5034746;28;20069;-73
2023/08/18 04:23:59;;;;;;;0.30;0.30;;;16.50;99.90;;;;;;5034723;28;20037;-73
2023/08/18 04:26:27;;;;;;;0.30;0.30;;;16.50;99.90;;;;;;5033739;28;20085;-72
2023/08/18 04:28:52;;;;;;;0.30;0.30;;;16.50;99.90;;;;;;5034197;28;20125;-72
2023/08/18 04:31:18;;;;;;;0.30;0.30;;;16.50;99.90;;;;;;5034195;28;20116;-72
2023/08/18 04:33:43;;;;;;;0.40;0.40;;;16.50;99.90;;;;;;5033939;28;20539;-72
2023/08/18 04:36:09;;;;;;;0.40;0.40;;;16.50;99.90;;;;;;5034233;28;20133;-72
2023/08/18 04:38:35;;;;;;;0.37;0.37;;;16.50;99.90;;;;;;5034160;28;20120;-71
2023/08/18 04:41:02;;;;;;;0.30;0.30;;;16.50;99.90;;;;;;5033861;28;20390;-72
2023/08/18 04:43:29;;;;;;;0.30;0.30;;;16.50;99.90;;;;;;5033899;28;20037;-72
2023/08/18 04:45:56;;;;;;;0.30;0.30;;;16.50;99.90;;;;;;5033973;28;20099;-72
2023/08/18 04:48:23;;;;;;;0.30;0.30;;;16.50;99.90;;;;;;5033947;28;20044;-73
2023/08/18 04:50:48;;;;;;;;;;;16.50;99.90;;;;;;5034898;28;20095;-71
2023/08/18 04:53:14;;;;;;;0.25;0.25;;;16.50;99.90;;;;;;5034451;28;19929;-72
2023/08/18 04:55:41;;;;;;;0.30;0.30;;;16.60;99.90;;;;;;5033905;28;20045;-76
2023/08/18 04:58:12;;;;;;;0.30;0.30;;;16.50;99.90;;;;;;5033830;28;20489;-72
2023/08/18 05:00:39;;;;;;;0.38;0.38;;;16.60;99.90;;;;;;5032756;28;20051;-72
2023/08/18 05:03:05;;;;;;;0.60;0.60;;;16.60;99.90;;;;;;5034136;28;20037;-74
2023/08/18 05:05:38;;;;;;;0.30;0.30;;;16.60;99.90;;;;;;5033467;28;20191;-72
2023/08/18 05:08:04;;;;;;;0.30;0.30;;;16.60;99.90;;;;;;5033719;28;20049;-71
2023/08/18 05:10:30;;;;;;;0.43;0.43;;;16.60;99.90;;;;;;5033689;28;20033;-71
2023/08/18 05:12:55;;;;;;;0.83;0.50;;;16.60;99.90;;;;;;5033416;28;20118;-72
2023/08/18 05:15:22;;;;;;;0.40;0.40;;;16.60;99.90;;;;;;5033557;28;20041;-71
2023/08/18 05:17:51;;;;;;;0.40;0.40;;;16.50;99.90;;;;;;5033271;28;20492;-71
2023/08/18 05:20:16;;;;;;;0.35;0.35;;;16.50;99.90;;;;;;5033637;28;20033;-71
2023/08/18 05:22:42;;;;;;;0.40;0.40;;;16.50;99.90;;;;;;5033838;28;20484;-72
2023/08/18 05:25:08;;;;;;;0.30;0.30;;;16.50;99.90;;;;;;5033583;28;20037;-73
2023/08/18 05:27:34;;;;;;;0.47;0.47;;;16.60;99.90;;;;;;5033425;28;20184;-71
2023/08/18 05:30:00;;;;;;;0.30;0.30;;;16.50;99.90;;;;;;5033034;28;20315;-73
2023/08/18 05:32:26;;;;;;;0.30;0.30;;;16.60;99.90;;;;;;5033714;28;20072;-71
2023/08/18 05:34:55;;;;;;;0.30;0.30;;;16.60;99.90;;;;;;5033562;28;20455;-71
2023/08/18 05:37:24;;;;;;;0.30;0.30;;;16.60;99.90;;;;;;5035425;28;20045;-73
2023/08/18 05:39:49;;;;;;;0.93;0.47;;;16.60;99.90;;;;;;5037520;28;20377;-71
2023/08/18 05:42:15;;;;;;;0.30;0.30;;;16.70;99.90;;;;;;5037452;28;20045;-71
2023/08/18 05:44:42;;;;;;;0.30;0.30;;;16.60;99.90;;;;;;5037039;28;20067;-72
2023/08/18 05:47:07;;;;;;;0.30;0.30;;;16.70;99.90;;;;;;5037315;28;20034;-74
2023/08/18 05:49:33;;;;;;;0.90;0.90;;;16.70;99.90;;;;;;5037413;28;20041;-75
2023/08/18 05:51:59;;;;;;;0.77;0.73;;;16.70;99.90;;;;;;5035999;28;20041;-75
2023/08/18 05:54:26;;;;;;;0.30;0.30;;;16.70;99.90;;;;;;5037212;28;20041;-78
2023/08/18 05:56:51;;;;;;;0.40;0.40;;;16.70;99.90;;;;;;5037166;28;20042;-80
2023/08/18 05:59:17;;;;;;;0.40;0.40;;;16.70;99.90;;;;;;5037407;28;20052;-74
2023/08/18 06:01:43;;;;;;;0.50;0.50;;;16.70;99.90;;;;;;5036871;28;20037;-75
2023/08/18 06:04:08;;;;;;;0.60;0.40;;;16.70;99.90;;;;;;5037291;28;20042;-72
2023/08/18 06:06:35;;;;;;;0.30;0.30;;;16.70;99.90;;;;;;5037113;28;20512;-73
2023/08/18 06:09:01;;;;;;;0.65;0.50;;;16.80;99.90;;;;;;5036876;28;20073;-73
2023/08/18 06:11:27;;;;;;;0.43;0.43;;;16.80;99.90;;;;;;5036865;28;20462;-74
2023/08/18 06:13:53;;;;;;;0.30;0.30;;;16.80;99.90;;;;;;5036756;28;20045;-74
2023/08/18 06:16:19;;;;;;;0.30;0.30;;;16.80;99.90;;;;;;5037198;28;20037;-73
2023/08/18 06:18:44;;;;;;;0.33;0.33;;;16.90;99.90;;;;;;5036925;28;20478;-73
2023/08/18 06:21:10;;;;;;;0.40;0.40;;;16.90;99.90;;;;;;5036374;28;20099;-74
2023/08/18 06:23:36;;;;;;;0.30;0.30;;;16.90;99.90;;;;;;5036408;28;20041;-74
2023/08/18 06:26:02;;;;;;;0.30;0.30;;;16.90;99.90;;;;;;5034939;28;20401;-75
2023/08/18 06:28:29;;;;;;;0.40;0.40;;;16.90;99.90;;;;;;5035656;28;20037;-75
2023/08/18 06:31:05;;;;;;;0.35;0.35;;;17.00;99.90;;;;;;5036516;28;20492;-74
2023/08/18 06:33:32;;;;;;;0.30;0.30;;;17.00;99.90;;;;;;5035875;28;20438;-75
2023/08/18 06:35:58;;;;;;;;;;;17.00;99.90;;;;;;5037118;28;20054;-76
2023/08/18 06:38:24;;;;;;;0.40;0.40;;;17.00;99.90;;;;;;5036404;28;19921;-75
2023/08/18 06:40:49;;;;;;;0.30;0.30;;;17.10;99.90;;;;;;5036421;28;20041;-75
2023/08/18 06:43:15;;;;;;;0.63;0.53;;;17.10;99.90;;;;;;5036269;28;20037;-75
2023/08/18 06:45:40;;;;;;;0.43;0.43;;;17.10;99.90;;;;;;5036781;28;20132;-74
2023/08/18 06:48:06;;;;;;;0.30;0.30;;;17.20;99.90;;;;;;5035526;28;20458;-74
2023/08/18 06:50:32;;;;;;;0.60;0.60;;;17.20;99.90;;;;;;5036565;28;20059;-75
2023/08/18 06:52:57;;;;;;;0.43;0.43;;;17.30;99.90;;;;;;5036438;28;20044;-75
2023/08/18 06:55:23;;;;;;;0.33;0.33;;;17.30;99.90;;;;;;5036046;28;20041;-74
2023/08/18 06:57:49;;;;;;;1.55;0.70;;;17.30;99.90;;;;;;5036996;28;20133;-74
2023/08/18 07:00:15;;;;;;;0.40;0.40;;;17.30;99.90;;;;;;5036075;28;20453;-75
2023/08/18 07:02:41;;;;;;;0.40;0.40;;;17.40;99.90;;;;;;5035896;28;20099;-75
2023/08/18 07:05:07;;;;;;;0.80;0.80;;;17.40;99.90;;;;;;5035948;28;20476;-75
2023/08/18 07:07:34;;;;;;;0.50;0.50;;;17.40;99.90;;;;;;5035828;28;20030;-75
2023/08/18 07:09:59;;;;;;;;;;;17.50;99.90;;;;;;5036250;28;20045;-74
2023/08/18 07:12:25;;;;;;;0.50;0.50;;;17.50;99.90;;;;;;5035765;28;19972;-75
2023/08/18 07:14:51;;;;;;;0.63;0.60;;;17.50;99.90;;;;;;5035318;28;20041;-74
2023/08/18 07:17:17;;;;;;;0.30;0.30;;;17.50;99.90;;;;;;5035449;28;20046;-75
2023/08/18 07:19:43;;;;;;;0.45;0.40;;;17.50;99.90;;;;;;5036112;28;20042;-75
2023/08/18 07:22:09;;;;;;;1.05;0.68;;;17.50;99.90;;;;;;5035622;28;20116;-75
2023/08/18 07:24:35;;;;;;;0.40;0.40;;;17.50;99.90;;;;;;5035715;28;20048;-75
2023/08/18 07:27:01;;;;;;;0.30;0.30;;;17.50;99.90;;;;;;5034194;28;20624;-74
2023/08/18 07:29:27;;;;;;;0.83;0.57;;;17.50;99.90;;;;;;5035516;28;20048;-75
2023/08/18 07:31:52;;;;;;;0.50;0.50;;;17.50;99.90;;;;;;5035233;28;20041;-75
2023/08/18 07:34:18;;;;;;;2.43;1.43;;;17.50;99.90;;;;;;5035640;28;20033;-74
2023/08/18 07:36:44;;;;;;;0.80;0.80;;;17.50;99.90;;;;;;5035354;28;20428;-74
2023/08/18 07:39:12;;;;;;;0.40;0.40;;;17.50;99.90;;;;;;5035317;28;20045;-75
2023/08/18 07:41:41;;;;;;;0.38;0.38;;;17.50;99.90;;;;;;5034883;28;20125;-75
2023/08/18 07:44:07;;;;;;;0.85;0.60;;;17.50;99.90;;;;;;5035210;28;20037;-74
2023/08/18 07:46:33;;;;;;;0.47;0.47;;;17.60;99.90;;;;;;5035084;28;20037;-74
2023/08/18 07:48:59;;;;;;;0.55;0.55;;;17.60;99.90;;;;;;5035493;28;20037;-75
2023/08/18 07:51:25;;;;;;;0.40;0.40;;;17.60;99.90;;;;;;5034762;28;20041;-76
2023/08/18 07:53:51;;;;;;;0.70;0.60;;;17.60;99.90;;;;;;5034609;28;20120;-75
2023/08/18 07:56:16;;;;;;;0.30;0.30;;;17.70;99.90;;;;;;5034550;28;20420;-74
2023/08/18 07:58:42;;;;;;;0.57;0.53;;;17.70;99.90;;;;;;5034984;28;20351;-76
2023/08/18 08:01:08;;;;;;;1.47;1.37;;;17.80;99.90;;;;;;5033696;28;20041;-76
2023/08/18 08:03:35;;;;;;;0.50;0.50;;;17.90;99.90;;;;;;5034833;28;20124;-76
2023/08/18 08:06:02;;;;;;;0.60;0.60;;;17.90;99.90;;;;;;5034793;28;20295;-76
2023/08/18 08:08:27;;;;;;;0.50;0.50;;;18.00;99.90;;;;;;5034369;28;20481;-79
2023/08/18 08:10:53;;;;;;;0.40;0.40;;;18.10;99.90;;;;;;5034717;28;20041;-74
2023/08/18 08:13:19;;;;;;;0.63;0.63;;;18.10;99.90;;;;;;5034639;28;20040;-76
2023/08/18 08:15:45;;;;;;;1.50;0.97;;;18.30;99.90;;;;;;5034517;28;20385;-76
2023/08/18 08:18:15;;;;;;;0.75;0.73;;;18.40;99.90;;;;;;5034519;28;20095;-74
2023/08/18 08:20:42;;;;;;;0.38;0.38;;;18.50;99.90;;;;;;5034325;28;20133;-73
2023/08/18 08:23:07;;;;;;;0.40;0.40;;;18.70;99.90;;;;;;5034528;28;20038;-73
2023/08/18 08:25:34;;;;;;;0.30;0.30;;;18.80;99.90;;;;;;5034395;28;20095;-76
2023/08/18 08:28:01;;;;;;;0.40;0.40;;;19.00;99.90;;;;;;5034347;28;20103;-75
2023/08/18 08:30:28;;;;;;;0.50;0.50;;;19.10;99.90;;;;;;5034285;28;20045;-74
2023/08/18 08:32:54;;;;;;;0.88;0.88;;;19.20;99.90;;;;;;5034344;28;20136;-77
2023/08/18 08:35:20;;;;;;;0.43;0.43;;;19.30;99.90;;;;;;5034757;28;20124;-76
2023/08/18 08:37:46;;;;;;;0.38;0.38;;;19.30;99.90;;;;;;5034284;28;20376;-77
2023/08/18 08:40:20;;;;;;;1.93;0.80;;;19.40;99.90;;;;;;5034089;28;20041;-77
2023/08/18 08:42:53;;;;;;;0.45;0.45;;;19.50;99.90;;;;;;5034150;28;20045;-77
2023/08/18 08:45:19;;;;;;;0.73;0.73;;;19.50;99.90;;;;;;5034738;28;20051;-77
2023/08/18 08:47:46;;;;;;;0.57;0.57;;;19.50;99.90;;;;;;5033956;28;20048;-77
2023/08/18 08:50:16;;;;;;;0.60;0.50;;;19.60;99.90;;;;;;5034087;28;20091;-77
2023/08/18 08:52:44;;;;;;;0.70;0.70;;;19.60;99.90;;;;;;5033806;28;20041;-78
2023/08/18 08:55:12;;;;;;;0.60;0.47;;;19.70;99.90;;;;;;5033956;28;20091;-77
2023/08/18 08:57:38;;;;;;;0.55;0.55;;;19.80;99.90;;;;;;5034142;28;20041;-77
2023/08/18 09:00:05;;;;;;;0.73;0.73;;;19.80;99.90;;;;;;5032896;28;20045;-74
2023/08/18 09:02:31;;;;;;;;;;;19.90;99.90;;;;;;5032995;28;20068;-73
2023/08/18 09:05:00;;;;;;;0.82;0.68;;;20.00;99.90;;;;;;5033739;28;20345;-73
2023/08/18 09:07:27;;;;;;;0.43;0.43;;;20.00;99.90;;;;;;5034077;28;20042;-73
2023/08/18 09:09:52;;;;;;;;;;;20.10;99.90;;;;;;5032937;28;20127;-74
2023/08/18 09:12:18;;;;;;;0.70;0.63;;;20.10;99.90;;;;;;5033286;28;20018;-74
2023/08/18 09:14:44;;;;;;;0.50;0.50;;;20.10;99.90;;;;;;5033365;28;20045;-73
2023/08/18 09:17:09;;;;;;;0.60;0.53;;;20.20;99.90;;;;;;5033840;28;20033;-74
2023/08/18 09:19:35;;;;;;;1.10;0.60;;;20.10;99.90;;;;;;5033735;28;20462;-75
2023/08/18 09:22:04;;;;;;;0.47;0.47;;;20.20;99.90;;;;;;5033225;28;20084;-73
2023/08/18 09:24:31;;;;;;;1.00;1.00;;;20.20;99.90;;;;;;5033491;28;20037;-74
2023/08/18 09:27:14;;;;;;;2.58;0.40;;;20.30;99.90;;;;;;5033526;28;20445;-73
2023/08/18 09:29:39;;;;;;;0.30;0.30;;;20.20;99.90;;;;;;5033546;28;20048;-76
2023/08/18 09:32:07;;;;;;;0.63;0.63;;;20.20;99.90;;;;;;5033251;28;20029;-74
2023/08/18 09:34:37;;;;;;;0.55;0.55;;;20.30;99.90;;;;;;5033314;28;20056;-73
2023/08/18 09:37:03;;;;;;;0.32;0.32;;;20.30;99.90;;;;;;5033828;28;20038;-74
2023/08/18 09:39:28;;;;;;;2.00;0.97;;;20.30;99.90;;;;;;5033689;28;20462;-87
2023/08/18 09:41:54;;;;;;;0.30;0.30;;;20.30;99.90;;;;;;5031681;28;20485;-85
2023/08/18 09:44:22;;;;;;;0.63;0.63;;;20.30;99.90;;;;;;5033533;28;20537;-85
2023/08/18 09:46:55;;;;;;;0.40;0.40;;;20.30;99.90;;;;;;5033547;28;20485;-86
2023/08/18 09:49:22;;;;;;;1.75;0.88;;;20.40;99.90;;;;;;5032641;28;20037;-85
2023/08/18 09:52:04;;;;;;;0.73;0.52;;;20.30;99.90;;;;;;5033925;28;20326;-86
2023/08/18 09:54:35;;;;;;;0.38;0.38;;;20.40;99.90;;;;;;5033794;28;20053;-82
2023/08/18 09:57:08;;;;;;;0.40;0.40;;;20.50;99.90;;;;;;5032454;28;20045;-86
2023/08/18 09:59:51;;;;;;;0.40;0.40;;;20.60;99.90;;;;;;5031519;28;20486;-80
2023/08/18 10:02:22;;;;;;;0.30;0.30;;;20.70;99.90;;;;;;5033337;28;20069;-83
2023/08/18 10:04:49;;;;;;;0.68;0.68;;;20.80;99.90;;;;;;5039421;28;20085;-83
2023/08/18 10:07:17;;;;;;;0.40;0.40;;;20.90;99.90;;;;;;5039065;28;20046;-81
2023/08/18 10:09:44;;;;;;;0.30;0.30;;;21.00;99.90;;;;;;5038381;28;20049;-81
2023/08/18 10:12:11;;;;;;;0.40;0.40;;;21.00;99.90;;;;;;5053675;28;20033;-78
2023/08/18 10:14:37;;;;;;;0.40;0.40;;;21.10;99.90;;;;;;5036859;28;20081;-81
2023/08/18 10:17:05;;;;;;;0.40;0.40;;;21.20;99.90;;;;;;5033112;28;20038;-80
2023/08/18 10:19:52;;;;;;;0.30;0.30;;;21.20;99.90;;;;;;5033060;28;20045;-79
2023/08/18 10:22:19;;;;;;;0.40;0.40;;;21.40;99.90;;;;;;5033120;28;20088;-83
2023/08/18 10:24:46;;;;;;;0.30;0.30;;;21.50;99.90;;;;;;5036228;28;20053;-80
2023/08/18 10:27:28;;;;;;;0.45;0.45;;;21.60;99.90;;;;;;5036847;28;20045;-82
2023/08/18 10:30:00;;;;;;;0.95;0.40;;;21.80;99.90;;;;;;5036778;28;20053;-83
2023/08/18 10:32:26;;;;;;;0.40;0.40;;;21.90;99.90;;;;;;5035584;28;20045;-85
2023/08/18 10:34:52;;;;;;;0.68;0.55;;;22.00;99.90;;;;;;5035460;28;20598;-84
2023/08/18 10:37:22;;;;;;;0.60;0.60;;;22.10;99.90;;;;;;5035626;28;20128;-84
2023/08/18 10:39:51;;;;;;;0.43;0.38;;;22.20;99.90;;;;;;5036641;28;20041;-80
2023/08/18 10:42:17;;;;;;;0.50;0.50;;;22.20;99.90;;;;;;5036470;28;20030;-83
2023/08/18 10:45:05;;;;;;;0.35;0.35;;;22.20;99.90;;;;;;5036168;28;20136;-83
2023/08/18 10:47:34;;;;;;;3.40;1.02;;;22.20;99.90;;;;;;5035099;28;20084;-84
2023/08/18 10:50:04;;;;;;;0.40;0.40;;;22.10;99.90;;;;;;5036347;28;20037;-81
2023/08/18 10:52:31;;;;;;;0.40;0.40;;;22.20;99.90;;;;;;5035297;28;20454;-83
2023/08/18 10:54:56;;;;;;;;;;;22.20;99.90;;;;;;5037002;28;20037;-83
2023/08/18 10:57:23;;;;;;;0.65;0.50;;;22.30;99.90;;;;;;5036241;28;20337;-81
2023/08/18 10:59:49;;;;;;;;;;;22.30;99.90;;;;;;5035683;28;20354;-83
2023/08/18 11:02:16;;;;;;;0.43;0.40;;;22.40;99.90;;;;;;5035102;28;19964;-83
2023/08/18 11:04:42;;;;;;;0.85;0.63;;;22.40;99.90;;;;;;5035864;28;20120;-84
2023/08/18 11:07:08;;;;;;;0.47;0.43;;;22.50;99.90;;;;;;5036152;28;20129;-82
2023/08/18 11:09:36;;;;;;;0.30;0.30;;;22.80;99.90;;;;;;5035983;28;20478;-80
2023/08/18 11:12:03;;;;;;;0.40;0.40;;;23.10;99.90;;;;;;5035915;28;20046;-80
2023/08/18 11:14:29;;;;;;;0.38;0.38;;;23.40;99.90;;;;;;5035852;28;20430;-80
2023/08/18 11:16:55;;;;;;;0.50;0.43;;;23.70;99.90;;;;;;5035632;28;20087;-79
2023/08/18 11:19:21;;;;;;;1.07;0.97;;;23.90;99.90;;;;;;5034582;28;20386;-81
2023/08/18 11:21:46;;;;;;;0.77;0.70;;;24.00;99.90;;;;;;5035522;28;20037;-79
2023/08/18 11:24:12;;;;;;;0.20;0.20;;;24.00;99.90;;;;;;5035760;28;20120;-79
2023/08/18 11:26:39;;;;;;;0.60;0.60;;;24.10;99.90;;;;;;5035415;28;20473;-80
2023/08/18 11:29:06;;;;;;;0.30;0.30;;;24.20;99.90;;;;;;5035462;28;20048;-79
2023/08/18 11:31:32;;;;;;;0.30;0.30;;;24.20;99.90;;;;;;5035348;28;20072;-79
2023/08/18 11:33:59;;;;;;;1.30;0.70;;;24.20;99.90;;;;;;5035238;28;20126;-78
2023/08/18 11:36:28;;;;;;;;;;;24.10;99.90;;;;;;5035668;28;20046;-79
2023/08/18 11:39:00;;;;;;;1.92;0.75;;;24.10;99.90;;;;;;5035277;28;20333;-78
2023/08/18 11:41:25;;;;;;;0.52;0.52;;;24.10;99.90;;;;;;5035368;28;20123;-80
2023/08/18 11:43:51;;;;;;;0.50;0.50;;;24.10;99.90;;;;;;5035334;28;20108;-80
2023/08/18 11:46:17;;;;;;;0.77;0.53;;;24.00;99.90;;;;;;5033858;28;20041;-78
2023/08/18 11:48:42;;;;;;;1.50;0.87;;;23.90;99.90;;;;;;5035224;28;20047;-82
2023/08/18 11:51:13;;;;;;;0.97;0.90;;;23.90;99.90;;;;;;5035162;28;20137;-82
2023/08/18 11:53:39;;;;;;;0.47;0.45;;;23.80;99.90;;;;;;5034387;28;20041;-82
2023/08/18 11:56:05;;;;;;;0.40;0.40;;;23.90;99.90;;;;;;5035051;28;20427;-82
2023/08/18 11:58:33;;;;;;;0.37;0.37;;;24.10;99.90;;;;;;5034840;28;20373;-75
2023/08/18 12:01:03;;;;;;;0.65;0.65;;;24.40;99.90;;;;;;5033899;28;20280;-76
2023/08/18 12:03:29;;;;;;;0.38;0.38;;;24.60;99.90;;;;;;5034863;28;20432;-77
2023/08/18 12:05:57;;;;;;;0.40;0.40;;;24.90;99.90;;;;;;5034686;28;20033;-72
2023/08/18 12:08:23;;;;;;;0.68;0.50;;;25.20;99.90;;;;;;5034466;28;20534;-75
2023/08/18 12:10:51;;;;;;;1.13;0.60;;;25.40;99.90;;;;;;5034653;28;20087;-74
2023/08/18 12:13:18;;;;;;;0.38;0.38;;;25.60;99.90;;;;;;5034415;28;20466;-74
2023/08/18 12:15:44;;;;;;;0.98;0.88;;;25.70;99.90;;;;;;5034324;28;20095;-76
2023/08/18 12:18:09;;;;;;;1.23;1.13;;;25.70;99.90;;;;;;5033376;28;20053;-75
2023/08/18 12:20:36;;;;;;;0.30;0.30;;;25.60;99.90;;;;;;5033955;28;20045;-74
2023/08/18 12:23:03;;;;;;;0.20;0.20;;;25.60;99.90;;;;;;5033969;28;20481;-76
2023/08/18 12:25:29;;;;;;;0.52;0.50;;;25.60;99.90;;;;;;5034002;28;20389;-76
2023/08/18 12:27:55;;;;;;;1.20;0.90;;;25.60;99.90;;;;;;5033841;28;20041;-75
2023/08/18 12:30:21;;;;;;;0.80;0.57;;;25.60;99.90;;;;;;5033720;28;20045;-75
2023/08/18 12:32:48;;;;;;;0.90;0.73;;;25.80;99.90;;;;;;5034098;28;20389;-75
2023/08/18 12:35:14;;;;;;;0.63;0.63;;;25.90;99.90;;;;;;5033717;28;20049;-73
2023/08/18 12:37:40;;;;;;;0.80;0.70;;;26.00;99.90;;;;;;5034024;28;20488;-75
2023/08/18 12:40:07;;;;;;;0.63;0.63;;;26.10;99.90;;;;;;5034090;28;20037;-74
2023/08/18 12:42:33;;;;;;;0.50;0.40;;;26.00;99.90;;;;;;5033783;28;20124;-73
2023/08/18 12:44:59;;;;;;;0.30;0.30;;;26.10;99.90;;;;;;5033929;28;20132;-73
2023/08/18 12:47:24;;;;;;;0.30;0.30;;;26.20;99.90;;;;;;5033245;28;20076;-75